sensor_id;sensor_type;location;lat;lon;timestamp;pressure;altitude;pressure_sealevel;temperature;humidity
20368;BME280;10343;52.402;9.796;2023-01-15T00:00:00;98134.31;;;21.02;100.00
20368;BME280;10343;52.402;9.796;2023-01-15T00:02:30;98199.94;;;21.69;100.00
20368;BME280;10343;52.402;9.796;2023-01-15T00:04:58;98292.00;;;20.97;100.00
20368;BME280;10343;52.402;9.796;2023-01-15T00:07:30;98128.25;;;24.34;100.00
20368;BME280;10343;52.402;9.796;2023-01-15T00:09:58;98294.38;;;22.27;100.00
20368;BME280;10343;52.402;9.796;2023-01-15T00:12:26;98207.31;;;31.29;100.00
20368;BME280;10343;52.402;9.796;2023-01-15T00:14:53;98405.91;;;36.01;100.00
20368;BME280;10343;52.402;9.796;2023-01-15T00:17:23;98454.94;;;36.21;100.00
20368;BME280;10343;52.402;9.796;2023-01-15T00:19:51;98535.75;;;38.38;100.00
20368;BME280;10343;52.402;9.796;2023-01-15T00:22:19;98389.38;;;14.21;100.00
20368;BME280;10343;52.402;9.796;2023-01-15T00:24:48;98387.31;;;12.36;100.00
20368;BME280;10343;52.402;9.796;2023-01-15T00:27:35;98369.56;;;11.97;100.00
20368;BME280;10343;52.402;9.796;2023-01-15T00:30:09;98374.19;;;11.93;100.00
20368;BME280;10343;52.402;9.796;2023-01-15T00:32:38;98395.28;;;11.26;100.00
20368;BME280;10343;52.402;9.796;2023-01-15T00:35:06;98438.00;;;11.35;100.00
20368;BME280;10343;52.402;9.796;2023-01-15T00:37:34;98458.66;;;11.45;100.00
20368;BME280;10343;52.402;9.796;2023-01-15T00:40:04;98489.91;;;11.68;100.00
20368;BME280;10343;52.402;9.796;2023-01-15T00:42:32;98564.34;;;10.61;100.00
20368;BME280;10343;52.402;9.796;2023-01-15T00:45:02;98708.41;;;11.38;100.00
20368;BME280;10343;52.402;9.796;2023-01-15T00:47:36;98903.53;;;11.28;100.00
20368;BME280;10343;52.402;9.796;2023-01-15T00:50:05;99013.75;;;11.34;100.00
20368;BME280;10343;52.402;9.796;2023-01-15T00:52:33;99065.81;;;11.01;100.00
20368;BME280;10343;52.402;9.796;2023-01-15T00:55:01;99103.06;;;10.25;100.00
20368;BME280;10343;52.402;9.796;2023-01-15T00:57:31;99110.56;;;11.25;100.00
20368;BME280;10343;52.402;9.796;2023-01-15T00:59:59;99111.88;;;12.02;100.00
20368;BME280;10343;52.402;9.796;2023-01-15T01:02:26;99139.22;;;11.53;100.00
20368;BME280;10343;52.402;9.796;2023-01-15T01:04:54;99130.38;;;11.00;100.00
20368;BME280;10343;52.402;9.796;2023-01-15T01:07:22;99125.78;;;10.67;100.00
20368;BME280;10343;52.402;9.796;2023-01-15T01:09:50;99124.28;;;11.68;100.00
20368;BME280;10343;52.402;9.796;2023-01-15T01:12:18;99139.84;;;10.69;100.00
20368;BME280;10343;52.402;9.796;2023-01-15T01:14:48;99139.56;;;10.18;100.00
20368;BME280;10343;52.402;9.796;2023-01-15T01:17:16;99135.56;;;10.48;100.00
20368;BME280;10343;52.402;9.796;2023-01-15T01:19:43;99137.63;;;10.03;100.00
20368;BME280;10343;52.402;9.796;2023-01-15T01:22:11;99157.66;;;9.69;100.00
20368;BME280;10343;52.402;9.796;2023-01-15T01:24:39;99164.56;;;9.92;100.00
20368;BME280;10343;52.402;9.796;2023-01-15T01:27:07;99158.88;;;10.01;100.00
20368;BME280;10343;52.402;9.796;2023-01-15T01:29:35;99158.63;;;11.01;100.00
20368;BME280;10343;52.402;9.796;2023-01-15T01:32:04;99178.41;;;10.39;100.00
20368;BME280;10343;52.402;9.796;2023-01-15T01:34:33;99192.78;;;10.12;100.00
20368;BME280;10343;52.402;9.796;2023-01-15T01:37:01;99206.16;;;10.87;99.97
20368;BME280;10343;52.402;9.796;2023-01-15T01:39:28;99226.06;;;11.32;96.62
20368;BME280;10343;52.402;9.796;2023-01-15T01:41:56;99235.75;;;9.98;91.52
20368;BME280;10343;52.402;9.796;2023-01-15T01:45:03;99226.00;;;10.59;95.62
20368;BME280;10343;52.402;9.796;2023-01-15T01:47:34;99232.03;;;10.82;94.74
20368;BME280;10343;52.402;9.796;2023-01-15T01:50:07;99231.69;;;10.51;91.97
20368;BME280;10343;52.402;9.796;2023-01-15T01:52:39;99228.31;;;10.86;92.90
20368;BME280;10343;52.402;9.796;2023-01-15T01:55:08;99231.44;;;10.94;90.96
20368;BME280;10343;52.402;9.796;2023-01-15T01:57:38;99232.41;;;9.95;92.04
20368;BME280;10343;52.402;9.796;2023-01-15T02:00:08;99237.41;;;10.01;91.68
20368;BME280;10343;52.402;9.796;2023-01-15T02:02:43;99223.50;;;9.96;91.40
20368;BME280;10343;52.402;9.796;2023-01-15T02:05:15;99237.06;;;10.50;89.43
20368;BME280;10343;52.402;9.796;2023-01-15T02:07:47;99226.66;;;10.64;87.90
20368;BME280;10343;52.402;9.796;2023-01-15T02:10:15;99231.91;;;10.26;85.42
20368;BME280;10343;52.402;9.796;2023-01-15T02:12:48;99232.53;;;9.92;88.17
20368;BME280;10343;52.402;9.796;2023-01-15T02:15:25;99238.06;;;10.66;84.38
20368;BME280;10343;52.402;9.796;2023-01-15T02:18:01;99240.34;;;10.36;85.88
20368;BME280;10343;52.402;9.796;2023-01-15T02:20:36;99226.66;;;10.64;83.90
20368;BME280;10343;52.402;9.796;2023-01-15T02:23:19;99232.38;;;10.74;82.72
20368;BME280;10343;52.402;9.796;2023-01-15T02:26:20;99229.38;;;10.82;83.09
20368;BME280;10343;52.402;9.796;2023-01-15T02:28:56;99241.97;;;10.39;82.44
20368;BME280;10343;52.402;9.796;2023-01-15T02:31:29;99233.25;;;10.16;83.61
20368;BME280;10343;52.402;9.796;2023-01-15T02:34:04;99232.69;;;10.87;80.13
20368;BME280;10343;52.402;9.796;2023-01-15T02:36:36;99233.84;;;10.62;80.42
20368;BME280;10343;52.402;9.796;2023-01-15T02:39:11;99236.69;;;10.39;80.10
20368;BME280;10343;52.402;9.796;2023-01-15T02:41:44;99248.41;;;10.52;76.94
20368;BME280;10343;52.402;9.796;2023-01-15T02:44:16;99243.06;;;10.33;76.83
20368;BME280;10343;52.402;9.796;2023-01-15T02:46:48;99234.59;;;10.64;77.80
20368;BME280;10343;52.402;9.796;2023-01-15T02:49:18;99228.22;;;11.07;74.20
20368;BME280;10343;52.402;9.796;2023-01-15T02:51:52;99212.38;;;11.22;71.67
20368;BME280;10343;52.402;9.796;2023-01-15T02:54:25;99218.78;;;10.82;71.76
20368;BME280;10343;52.402;9.796;2023-01-15T02:56:57;99208.03;;;10.85;71.41
20368;BME280;10343;52.402;9.796;2023-01-15T02:59:29;99201.72;;;10.87;71.25
20368;BME280;10343;52.402;9.796;2023-01-15T03:02:03;99205.63;;;11.34;71.06
20368;BME280;10343;52.402;9.796;2023-01-15T03:04:37;99208.81;;;11.24;69.23
20368;BME280;10343;52.402;9.796;2023-01-15T03:07:11;99197.25;;;10.88;70.00
20368;BME280;10343;52.402;9.796;2023-01-15T03:09:42;99193.91;;;11.21;71.40
20368;BME280;10343;52.402;9.796;2023-01-15T03:12:14;99200.03;;;11.41;69.59
20368;BME280;10343;52.402;9.796;2023-01-15T03:14:51;99210.16;;;11.32;68.25
20368;BME280;10343;52.402;9.796;2023-01-15T03:17:23;99218.13;;;11.32;68.07
20368;BME280;10343;52.402;9.796;2023-01-15T03:19:57;99211.63;;;10.65;68.44
20368;BME280;10343;52.402;9.796;2023-01-15T03:22:31;99196.81;;;11.51;68.87
20368;BME280;10343;52.402;9.796;2023-01-15T03:25:02;99204.63;;;11.00;70.42
20368;BME280;10343;52.402;9.796;2023-01-15T03:27:35;99193.78;;;10.68;71.19
20368;BME280;10343;52.402;9.796;2023-01-15T03:30:07;99195.06;;;10.98;71.69
20368;BME280;10343;52.402;9.796;2023-01-15T03:32:36;99195.84;;;10.81;72.52
20368;BME280;10343;52.402;9.796;2023-01-15T03:35:05;99192.75;;;11.44;71.79
20368;BME280;10343;52.402;9.796;2023-01-15T03:37:41;99187.81;;;11.19;71.53
20368;BME280;10343;52.402;9.796;2023-01-15T03:40:11;99194.56;;;11.07;71.71
20368;BME280;10343;52.402;9.796;2023-01-15T03:42:44;99196.16;;;10.75;72.95
20368;BME280;10343;52.402;9.796;2023-01-15T03:45:23;99188.91;;;11.15;72.36
20368;BME280;10343;52.402;9.796;2023-01-15T03:47:58;99189.31;;;10.88;72.60
20368;BME280;10343;52.402;9.796;2023-01-15T03:50:35;99188.91;;;11.15;72.41
20368;BME280;10343;52.402;9.796;2023-01-15T03:53:10;99173.78;;;11.34;72.76
20368;BME280;10343;52.402;9.796;2023-01-15T03:55:52;99184.44;;;10.98;72.35
20368;BME280;10343;52.402;9.796;2023-01-15T03:58:26;99167.28;;;10.68;73.20
20368;BME280;10343;52.402;9.796;2023-01-15T04:01:01;99159.59;;;11.35;71.49
20368;BME280;10343;52.402;9.796;2023-01-15T04:03:32;99153.63;;;10.95;72.15
20368;BME280;10343;52.402;9.796;2023-01-15T04:06:03;99159.88;;;10.75;73.44
20368;BME280;10343;52.402;9.796;2023-01-15T04:08:34;99161.25;;;11.01;73.15
20368;BME280;10343;52.402;9.796;2023-01-15T04:11:04;99156.94;;;10.24;73.29
20368;BME280;10343;52.402;9.796;2023-01-15T04:13:40;99146.56;;;10.77;72.76
20368;BME280;10343;52.402;9.796;2023-01-15T04:16:26;99138.00;;;10.89;71.62
20368;BME280;10343;52.402;9.796;2023-01-15T04:18:54;99142.38;;;10.90;73.37
20368;BME280;10343;52.402;9.796;2023-01-15T04:21:24;99147.72;;;10.71;73.49
20368;BME280;10343;52.402;9.796;2023-01-15T04:23:52;99147.53;;;10.93;73.27
20368;BME280;10343;52.402;9.796;2023-01-15T04:26:20;99129.84;;;10.57;72.56
20368;BME280;10343;52.402;9.796;2023-01-15T04:28:48;99146.38;;;10.99;71.67
20368;BME280;10343;52.402;9.796;2023-01-15T04:31:16;99156.44;;;11.10;72.07
20368;BME280;10343;52.402;9.796;2023-01-15T04:33:45;99158.22;;;10.55;73.01
20368;BME280;10343;52.402;9.796;2023-01-15T04:36:13;99170.03;;;11.03;72.50
20368;BME280;10343;52.402;9.796;2023-01-15T04:38:41;99151.69;;;11.16;71.00
20368;BME280;10343;52.402;9.796;2023-01-15T04:41:09;99144.66;;;11.15;71.52
20368;BME280;10343;52.402;9.796;2023-01-15T04:43:55;99148.28;;;10.78;70.62
20368;BME280;10343;52.402;9.796;2023-01-15T04:46:37;99118.03;;;10.82;71.65
20368;BME280;10343;52.402;9.796;2023-01-15T04:49:08;99135.63;;;11.02;70.53
20368;BME280;10343;52.402;9.796;2023-01-15T04:51:37;99136.34;;;10.86;70.82
20368;BME280;10343;52.402;9.796;2023-01-15T04:54:07;99146.88;;;10.70;71.42
20368;BME280;10343;52.402;9.796;2023-01-15T04:56:37;99146.59;;;10.94;73.17
20368;BME280;10343;52.402;9.796;2023-01-15T04:59:07;99138.84;;;10.72;72.02
20368;BME280;10343;52.402;9.796;2023-01-15T05:01:37;99146.72;;;10.74;71.97
20368;BME280;10343;52.402;9.796;2023-01-15T05:04:06;99150.94;;;11.14;71.90
20368;BME280;10343;52.402;9.796;2023-01-15T05:06:35;99157.59;;;10.67;71.04
20368;BME280;10343;52.402;9.796;2023-01-15T05:09:04;99138.13;;;10.68;71.58
20368;BME280;10343;52.402;9.796;2023-01-15T05:11:34;99143.97;;;10.39;72.53
20368;BME280;10343;52.402;9.796;2023-01-15T05:14:02;99147.53;;;10.93;71.98
20368;BME280;10343;52.402;9.796;2023-01-15T05:16:31;99148.34;;;11.30;71.03
20368;BME280;10343;52.402;9.796;2023-01-15T05:19:02;99150.94;;;11.14;69.94
20368;BME280;10343;52.402;9.796;2023-01-15T05:21:33;99144.72;;;10.79;70.56
20368;BME280;10343;52.402;9.796;2023-01-15T05:24:04;99130.84;;;10.54;71.86
20368;BME280;10343;52.402;9.796;2023-01-15T05:26:34;99125.53;;;10.54;71.61
20368;BME280;10343;52.402;9.796;2023-01-15T05:29:03;99133.13;;;10.62;72.84
20368;BME280;10343;52.402;9.796;2023-01-15T05:31:31;99129.41;;;10.66;71.66
20368;BME280;10343;52.402;9.796;2023-01-15T05:34:00;99133.34;;;10.19;72.75
20368;BME280;10343;52.402;9.796;2023-01-15T05:36:30;99128.38;;;10.12;73.47
20368;BME280;10343;52.402;9.796;2023-01-15T05:38:59;99126.19;;;10.60;72.88
20368;BME280;10343;52.402;9.796;2023-01-15T05:41:29;99132.66;;;9.95;72.20
20368;BME280;10343;52.402;9.796;2023-01-15T05:44:16;99136.66;;;9.85;74.95
20368;BME280;10343;52.402;9.796;2023-01-15T05:46:46;99129.53;;;10.63;72.28
20368;BME280;10343;52.402;9.796;2023-01-15T05:49:16;99125.19;;;11.34;71.57
20368;BME280;10343;52.402;9.796;2023-01-15T05:51:45;99131.16;;;11.02;69.20
20368;BME280;10343;52.402;9.796;2023-01-15T05:54:16;99134.06;;;10.61;70.60
20368;BME280;10343;52.402;9.796;2023-01-15T05:56:44;99138.81;;;11.09;69.98
20368;BME280;10343;52.402;9.796;2023-01-15T05:59:13;99135.97;;;10.77;70.61
20368;BME280;10343;52.402;9.796;2023-01-15T06:01:42;99138.41;;;10.81;70.92
20368;BME280;10343;52.402;9.796;2023-01-15T06:04:11;99148.19;;;10.43;70.00
20368;BME280;10343;52.402;9.796;2023-01-15T06:06:40;99136.41;;;10.67;71.70
20368;BME280;10343;52.402;9.796;2023-01-15T06:09:09;99144.00;;;10.56;71.54
20368;BME280;10343;52.402;9.796;2023-01-15T06:11:38;99141.44;;;10.54;71.95
20368;BME280;10343;52.402;9.796;2023-01-15T06:14:07;99136.69;;;10.61;71.53
20368;BME280;10343;52.402;9.796;2023-01-15T06:16:35;99155.88;;;10.28;72.33
20368;BME280;10343;52.402;9.796;2023-01-15T06:19:06;99153.75;;;10.75;71.82
20368;BME280;10343;52.402;9.796;2023-01-15T06:21:34;99163.03;;;10.83;69.74
20368;BME280;10343;52.402;9.796;2023-01-15T06:24:03;99150.19;;;10.38;70.98
20368;BME280;10343;52.402;9.796;2023-01-15T06:26:31;99152.03;;;10.35;71.40
20368;BME280;10343;52.402;9.796;2023-01-15T06:29:00;99159.13;;;10.54;71.25
20368;BME280;10343;52.402;9.796;2023-01-15T06:31:28;99146.69;;;10.16;70.66
20368;BME280;10343;52.402;9.796;2023-01-15T06:33:58;99156.34;;;10.57;71.77
20368;BME280;10343;52.402;9.796;2023-01-15T06:36:27;99153.38;;;10.63;70.42
20368;BME280;10343;52.402;9.796;2023-01-15T06:38:54;99151.78;;;10.02;71.97
20368;BME280;10343;52.402;9.796;2023-01-15T06:41:24;99157.75;;;10.26;71.55
20368;BME280;10343;52.402;9.796;2023-01-15T06:44:12;99159.44;;;9.89;72.48
20368;BME280;10343;52.402;9.796;2023-01-15T06:47:00;99154.59;;;10.18;71.80
20368;BME280;10343;52.402;9.796;2023-01-15T06:49:50;99154.75;;;9.94;71.89
20368;BME280;10343;52.402;9.796;2023-01-15T06:52:19;99142.03;;;10.02;72.21
20368;BME280;10343;52.402;9.796;2023-01-15T06:54:47;99147.16;;;10.64;70.70
20368;BME280;10343;52.402;9.796;2023-01-15T06:57:15;99147.69;;;10.33;72.07
20368;BME280;10343;52.402;9.796;2023-01-15T06:59:45;99166.66;;;10.05;71.51
20368;BME280;10343;52.402;9.796;2023-01-15T07:02:14;99154.59;;;10.75;71.20
20368;BME280;10343;52.402;9.796;2023-01-15T07:04:43;99159.81;;;10.58;71.19
20368;BME280;10343;52.402;9.796;2023-01-15T07:07:12;99156.25;;;10.59;71.00
20368;BME280;10343;52.402;9.796;2023-01-15T07:09:40;99138.00;;;10.33;70.62
20368;BME280;10343;52.402;9.796;2023-01-15T07:12:08;99145.59;;;10.22;71.17
20368;BME280;10343;52.402;9.796;2023-01-15T07:14:36;99143.28;;;10.33;71.59
20368;BME280;10343;52.402;9.796;2023-01-15T07:17:05;99155.13;;;9.86;72.31
20368;BME280;10343;52.402;9.796;2023-01-15T07:19:33;99156.28;;;10.00;72.65
20368;BME280;10343;52.402;9.796;2023-01-15T07:22:02;99156.88;;;10.83;69.97
20368;BME280;10343;52.402;9.796;2023-01-15T07:24:30;99146.88;;;10.51;69.62
20368;BME280;10343;52.402;9.796;2023-01-15T07:26:58;99151.91;;;10.39;70.41
20368;BME280;10343;52.402;9.796;2023-01-15T07:29:26;99149.72;;;10.66;68.94
20368;BME280;10343;52.402;9.796;2023-01-15T07:31:57;99161.19;;;10.28;69.69
20368;BME280;10343;52.402;9.796;2023-01-15T07:34:29;99169.66;;;10.36;69.53
20368;BME280;10343;52.402;9.796;2023-01-15T07:36:56;99164.34;;;10.75;69.50
20368;BME280;10343;52.402;9.796;2023-01-15T07:39:24;99162.91;;;10.29;69.72
20368;BME280;10343;52.402;9.796;2023-01-15T07:41:54;99150.63;;;10.47;69.63
20368;BME280;10343;52.402;9.796;2023-01-15T07:44:39;99170.53;;;9.97;69.87
20368;BME280;10343;52.402;9.796;2023-01-15T07:47:25;99160.47;;;10.44;69.82
20368;BME280;10343;52.402;9.796;2023-01-15T07:50:14;99158.31;;;10.14;70.37
20368;BME280;10343;52.402;9.796;2023-01-15T07:52:42;99161.38;;;10.44;69.55
20368;BME280;10343;52.402;9.796;2023-01-15T07:55:10;99172.41;;;10.14;69.77
20368;BME280;10343;52.402;9.796;2023-01-15T07:57:40;99166.00;;;10.58;69.04
20368;BME280;10343;52.402;9.796;2023-01-15T08:00:11;99167.84;;;10.37;69.18
20368;BME280;10343;52.402;9.796;2023-01-15T08:02:40;99178.25;;;10.42;69.20
20368;BME280;10343;52.402;9.796;2023-01-15T08:05:09;99192.16;;;10.47;68.38
20368;BME280;10343;52.402;9.796;2023-01-15T08:07:40;99184.78;;;10.34;69.08
20368;BME280;10343;52.402;9.796;2023-01-15T08:10:10;99181.81;;;10.41;67.48
20368;BME280;10343;52.402;9.796;2023-01-15T08:12:38;99180.91;;;10.97;67.65
20368;BME280;10343;52.402;9.796;2023-01-15T08:15:23;99174.94;;;10.75;67.20
20368;BME280;10343;52.402;9.796;2023-01-15T08:17:51;99169.47;;;10.97;66.88
20368;BME280;10343;52.402;9.796;2023-01-15T08:20:21;99166.34;;;10.50;67.05
20368;BME280;10343;52.402;9.796;2023-01-15T08:22:51;99165.31;;;10.91;66.77
20368;BME280;10343;52.402;9.796;2023-01-15T08:25:21;99169.38;;;10.43;66.39
20368;BME280;10343;52.402;9.796;2023-01-15T08:27:50;99153.19;;;10.68;66.94
20368;BME280;10343;52.402;9.796;2023-01-15T08:30:20;99155.63;;;10.34;67.96
20368;BME280;10343;52.402;9.796;2023-01-15T08:32:49;99166.69;;;10.62;66.93
20368;BME280;10343;52.402;9.796;2023-01-15T08:35:17;99154.19;;;10.46;67.55
20368;BME280;10343;52.402;9.796;2023-01-15T08:37:45;99174.41;;;10.28;67.65
20368;BME280;10343;52.402;9.796;2023-01-15T08:40:14;99185.59;;;9.95;67.25
20368;BME280;10343;52.402;9.796;2023-01-15T08:42:42;99175.78;;;10.18;67.65
20368;BME280;10343;52.402;9.796;2023-01-15T08:45:10;99177.09;;;10.66;66.17
20368;BME280;10343;52.402;9.796;2023-01-15T08:47:38;99178.91;;;10.47;66.98
20368;BME280;10343;52.402;9.796;2023-01-15T08:50:07;99187.66;;;10.28;67.48
20368;BME280;10343;52.402;9.796;2023-01-15T08:52:36;99187.72;;;10.66;65.86
20368;BME280;10343;52.402;9.796;2023-01-15T08:55:05;99173.16;;;10.37;65.91
20368;BME280;10343;52.402;9.796;2023-01-15T08:57:35;99170.56;;;10.35;66.24
20368;BME280;10343;52.402;9.796;2023-01-15T09:00:05;99187.06;;;10.61;64.50
20368;BME280;10343;52.402;9.796;2023-01-15T09:02:33;99186.81;;;10.28;66.08
20368;BME280;10343;52.402;9.796;2023-01-15T09:05:01;99196.28;;;9.94;65.85
20368;BME280;10343;52.402;9.796;2023-01-15T09:07:29;99184.47;;;10.41;65.80
20368;BME280;10343;52.402;9.796;2023-01-15T09:09:57;99192.19;;;10.26;64.84
20368;BME280;10343;52.402;9.796;2023-01-15T09:12:25;99181.91;;;10.39;64.42
20368;BME280;10343;52.402;9.796;2023-01-15T09:14:56;99201.72;;;10.49;64.86
20368;BME280;10343;52.402;9.796;2023-01-15T09:17:29;99190.84;;;10.36;64.58
20368;BME280;10343;52.402;9.796;2023-01-15T09:19:58;99207.41;;;10.21;65.23
20368;BME280;10343;52.402;9.796;2023-01-15T09:22:28;99192.41;;;10.98;62.34
20368;BME280;10343;52.402;9.796;2023-01-15T09:24:57;99202.88;;;10.44;63.47
20368;BME280;10343;52.402;9.796;2023-01-15T09:27:25;99202.97;;;11.34;62.62
20368;BME280;10343;52.402;9.796;2023-01-15T09:29:56;99207.84;;;10.51;63.61
20368;BME280;10343;52.402;9.796;2023-01-15T09:32:24;99205.19;;;10.70;62.94
20368;BME280;10343;52.402;9.796;2023-01-15T09:34:52;99208.41;;;11.14;62.50
20368;BME280;10343;52.402;9.796;2023-01-15T09:37:20;99200.22;;;10.82;63.14
20368;BME280;10343;52.402;9.796;2023-01-15T09:39:48;99204.22;;;10.71;63.07
20368;BME280;10343;52.402;9.796;2023-01-15T09:42:27;99201.94;;;10.83;61.11
20368;BME280;10343;52.402;9.796;2023-01-15T09:45:15;99207.34;;;10.62;61.82
20368;BME280;10343;52.402;9.796;2023-01-15T09:47:53;99201.09;;;11.54;59.83
20368;BME280;10343;52.402;9.796;2023-01-15T09:50:30;99196.56;;;11.38;59.77
20368;BME280;10343;52.402;9.796;2023-01-15T09:53:12;99200.16;;;11.37;59.90
20368;BME280;10343;52.402;9.796;2023-01-15T09:55:46;99188.38;;;11.43;59.31
20368;BME280;10343;52.402;9.796;2023-01-15T09:58:17;99187.94;;;10.98;58.66
20368;BME280;10343;52.402;9.796;2023-01-15T10:00:48;99184.91;;;12.11;57.33
20368;BME280;10343;52.402;9.796;2023-01-15T10:03:24;99190.16;;;11.95;57.37
20368;BME280;10343;52.402;9.796;2023-01-15T10:06:02;99167.19;;;11.94;55.92
20368;BME280;10343;52.402;9.796;2023-01-15T10:08:34;99171.09;;;11.87;54.85
20368;BME280;10343;52.402;9.796;2023-01-15T10:11:05;99188.91;;;11.15;55.67
20368;BME280;10343;52.402;9.796;2023-01-15T10:13:49;99181.50;;;12.25;53.99
20368;BME280;10343;52.402;9.796;2023-01-15T10:16:23;99192.66;;;11.98;53.87
20368;BME280;10343;52.402;9.796;2023-01-15T10:18:52;99196.47;;;11.93;53.50
20368;BME280;10343;52.402;9.796;2023-01-15T10:21:27;99182.69;;;11.68;53.44
20368;BME280;10343;52.402;9.796;2023-01-15T10:24:01;99203.13;;;12.01;56.96
20368;BME280;10343;52.402;9.796;2023-01-15T10:26:35;99219.38;;;11.43;56.01
20368;BME280;10343;52.402;9.796;2023-01-15T10:29:10;99227.88;;;11.13;54.65
20368;BME280;10343;52.402;9.796;2023-01-15T10:47:44;99204.28;;;8.86;70.30
20368;BME280;10343;52.402;9.796;2023-01-15T10:50:17;99211.31;;;8.87;68.13
20368;BME280;10343;52.402;9.796;2023-01-15T10:52:48;99209.72;;;8.83;66.97
20368;BME280;10343;52.402;9.796;2023-01-15T10:55:20;99202.34;;;8.44;67.70
20368;BME280;10343;52.402;9.796;2023-01-15T10:57:54;99196.44;;;8.84;68.34
20368;BME280;10343;52.402;9.796;2023-01-15T11:00:36;99196.41;;;9.07;68.47
20368;BME280;10343;52.402;9.796;2023-01-15T11:03:11;99187.19;;;9.38;66.03
20368;BME280;10343;52.402;9.796;2023-01-15T11:05:42;99203.31;;;9.11;66.00
20368;BME280;10343;52.402;9.796;2023-01-15T11:08:20;99198.19;;;8.84;66.01
20368;BME280;10343;52.402;9.796;2023-01-15T11:11:17;99196.28;;;9.10;66.90
20368;BME280;10343;52.402;9.796;2023-01-15T11:13:55;99203.44;;;9.28;65.38
20368;BME280;10343;52.402;9.796;2023-01-15T11:16:40;99214.78;;;9.10;64.90
20368;BME280;10343;52.402;9.796;2023-01-15T11:19:30;99197.13;;;9.10;65.13
20368;BME280;10343;52.402;9.796;2023-01-15T11:22:08;99195.66;;;9.25;63.58
20368;BME280;10343;52.402;9.796;2023-01-15T11:24:44;99176.91;;;9.52;62.07
20368;BME280;10343;52.402;9.796;2023-01-15T11:27:15;99184.84;;;9.73;61.40
20368;BME280;10343;52.402;9.796;2023-01-15T11:29:49;99173.84;;;9.61;62.11
20368;BME280;10343;52.402;9.796;2023-01-15T11:32:28;99193.75;;;9.91;60.67
20368;BME280;10343;52.402;9.796;2023-01-15T11:34:59;99180.94;;;10.21;59.25
20368;BME280;10343;52.402;9.796;2023-01-15T11:37:27;99211.69;;;10.05;57.76
20368;BME280;10343;52.402;9.796;2023-01-15T11:39:57;99198.88;;;10.35;56.51
20368;BME280;10343;52.402;9.796;2023-01-15T11:42:31;99189.31;;;9.91;56.06
20368;BME280;10343;52.402;9.796;2023-01-15T11:45:18;99192.44;;;10.41;56.24
20368;BME280;10343;52.402;9.796;2023-01-15T11:48:13;99196.38;;;10.11;56.03
20368;BME280;10343;52.402;9.796;2023-01-15T11:51:05;99194.06;;;10.03;55.54
20368;BME280;10343;52.402;9.796;2023-01-15T11:53:38;99219.16;;;10.15;55.54
20368;BME280;10343;52.402;9.796;2023-01-15T11:56:10;99198.41;;;9.85;56.05
20368;BME280;10343;52.402;9.796;2023-01-15T11:58:43;99200.53;;;10.17;54.37
20368;BME280;10343;52.402;9.796;2023-01-15T12:01:12;99191.19;;;10.08;55.18
20368;BME280;10343;52.402;9.796;2023-01-15T12:03:42;99207.13;;;10.27;54.07
20368;BME280;10343;52.402;9.796;2023-01-15T12:06:13;99210.31;;;9.75;54.46
20368;BME280;10343;52.402;9.796;2023-01-15T12:08:45;99210.34;;;9.94;53.59
20368;BME280;10343;52.402;9.796;2023-01-15T12:11:37;99224.16;;;10.22;52.38
20368;BME280;10343;52.402;9.796;2023-01-15T12:14:26;99208.63;;;10.34;52.41
20368;BME280;10343;52.402;9.796;2023-01-15T12:17:01;99216.31;;;9.58;53.12
20368;BME280;10343;52.402;9.796;2023-01-15T12:19:38;99205.09;;;10.13;51.79
20368;BME280;10343;52.402;9.796;2023-01-15T12:22:27;99206.63;;;9.98;50.64
20368;BME280;10343;52.402;9.796;2023-01-15T12:25:09;99203.44;;;9.71;50.41
20368;BME280;10343;52.402;9.796;2023-01-15T12:27:50;99190.84;;;10.56;49.83
20368;BME280;10343;52.402;9.796;2023-01-15T12:30:24;99198.56;;;10.22;49.96
20368;BME280;10343;52.402;9.796;2023-01-15T12:33:00;99205.69;;;10.20;49.61
20368;BME280;10343;52.402;9.796;2023-01-15T12:35:32;99189.91;;;9.98;50.12
20368;BME280;10343;52.402;9.796;2023-01-15T12:38:09;99202.38;;;10.15;50.72
20368;BME280;10343;52.402;9.796;2023-01-15T12:40:44;99194.22;;;10.00;50.08
20368;BME280;10343;52.402;9.796;2023-01-15T12:43:18;99183.72;;;10.18;50.26
20368;BME280;10343;52.402;9.796;2023-01-15T12:46:06;99167.34;;;10.48;49.86
20368;BME280;10343;52.402;9.796;2023-01-15T12:48:41;99185.91;;;9.89;50.87
20368;BME280;10343;52.402;9.796;2023-01-15T12:51:19;99168.16;;;10.50;49.86
20368;BME280;10343;52.402;9.796;2023-01-15T12:53:55;99176.84;;;10.34;50.35
20368;BME280;10343;52.402;9.796;2023-01-15T12:56:28;99157.78;;;9.66;50.86
20368;BME280;10343;52.402;9.796;2023-01-15T12:59:01;99159.69;;;9.62;50.68
20368;BME280;10343;52.402;9.796;2023-01-15T13:01:36;99167.97;;;9.75;51.73
20368;BME280;10343;52.402;9.796;2023-01-15T13:04:11;99163.94;;;10.46;50.58
20368;BME280;10343;52.402;9.796;2023-01-15T13:06:44;99174.81;;;10.40;50.18
20368;BME280;10343;52.402;9.796;2023-01-15T13:09:26;99184.00;;;10.31;50.84
20368;BME280;10343;52.402;9.796;2023-01-15T13:11:56;99180.97;;;10.40;51.34
20368;BME280;10343;52.402;9.796;2023-01-15T13:14:24;99180.78;;;10.24;50.90
20368;BME280;10343;52.402;9.796;2023-01-15T13:16:54;99186.75;;;9.90;51.97
20368;BME280;10343;52.402;9.796;2023-01-15T13:19:33;99179.28;;;9.79;52.30
20368;BME280;10343;52.402;9.796;2023-01-15T13:22:04;99194.91;;;9.85;51.58
20368;BME280;10343;52.402;9.796;2023-01-15T13:24:59;99171.34;;;9.58;52.53
20368;BME280;10343;52.402;9.796;2023-01-15T13:27:44;99179.78;;;9.87;51.73
20368;BME280;10343;52.402;9.796;2023-01-15T13:30:30;99179.53;;;9.93;51.61
20368;BME280;10343;52.402;9.796;2023-01-15T13:33:16;99176.34;;;10.06;52.00
20368;BME280;10343;52.402;9.796;2023-01-15T13:35:47;99167.06;;;9.95;52.21
20368;BME280;10343;52.402;9.796;2023-01-15T13:38:19;99166.69;;;9.84;51.82
20368;BME280;10343;52.402;9.796;2023-01-15T13:40:51;99156.94;;;10.24;51.09
20368;BME280;10343;52.402;9.796;2023-01-15T13:43:29;99166.25;;;10.34;51.22